This is the latest recevied weather packets stored in our database for station/object F4FSZ-11. If no packets are shown the sender has not sent any weather packets the latest 10 day(s).
| Time | Temp. | Humidity | Pressure | Rain* | Wind** | Luminosity | Snow |
|---|---|---|---|---|---|---|---|
| 1777790021 | 15.56° C | 54% | 1009.2 hPa | - | - | - | - |
| 1777789121 | 15.56° C | 54% | 1009.2 hPa | - | - | - | - |
| 1777788220 | 15.56° C | 54% | 1009.3 hPa | - | - | - | - |
| 1777787320 | 15° C | 54% | 1009.1 hPa | - | - | - | - |
| 1777786420 | 14.44° C | 55% | 1009.1 hPa | - | - | - | - |
| 1777785520 | 14.44° C | 52% | 1009 hPa | - | - | - | - |
| 1777784620 | 13.89° C | 53% | 1009 hPa | - | - | - | - |
| 1777783720 | 13.89° C | 55% | 1009 hPa | - | - | - | - |
| 1777782820 | 13.33° C | 56% | 1009 hPa | - | - | - | - |
| 1777781920 | 13.89° C | 54% | 1009.2 hPa | - | - | - | - |
| 1777781020 | 13.89° C | 52% | 1009.3 hPa | - | - | - | - |
| 1777780120 | 13.89° C | 53% | 1009.3 hPa | - | - | - | - |
| 1777779220 | 13.89° C | 53% | 1009.3 hPa | - | - | - | - |
| 1777778320 | 13.33° C | 54% | 1009.4 hPa | - | - | - | - |
| 1777777420 | 13.33° C | 53% | 1009.5 hPa | - | - | - | - |
| 1777776520 | 13.89° C | 50% | 1009.5 hPa | - | - | - | - |
| 1777775620 | 12.78° C | 59% | 1009.6 hPa | - | - | - | - |
| 1777773819 | 13.89° C | 58% | 1009.7 hPa | - | - | - | - |
| 1777772019 | 14.44° C | 56% | 1009.8 hPa | - | - | - | - |
| 1777770219 | 15° C | 56% | 1010 hPa | - | - | - | - |
| 1777769319 | 15° C | 55% | 1010 hPa | - | - | - | - |
| 1777768419 | 14.44° C | 57% | 1010.1 hPa | - | - | - | - |
| 1777767519 | 15° C | 58% | 1010.2 hPa | - | - | - | - |
| 1777766619 | 14.44° C | 56% | 1010.3 hPa | - | - | - | - |
| 1777765719 | 15° C | 56% | 1010.5 hPa | - | - | - | - |
* Rain since midnight (hover to see other rain measurements)
** Current wind speed in m/s (hover to see current wind gust speed)